sensor_id;sensor_type;location;lat;lon;timestamp;pressure;altitude;pressure_sealevel;temperature;humidity
17764;BME280;22245;52.832;13.816;2022-09-27T00:00:44;99551.69;;;13.52;62.21
17764;BME280;22245;52.832;13.816;2022-09-27T00:04:09;99550.69;;;13.53;62.23
17764;BME280;22245;52.832;13.816;2022-09-27T00:07:31;99549.19;;;13.51;62.46
17764;BME280;22245;52.832;13.816;2022-09-27T00:10:58;99540.50;;;13.49;62.41
17764;BME280;22245;52.832;13.816;2022-09-27T00:14:19;99540.50;;;13.49;62.31
17764;BME280;22245;52.832;13.816;2022-09-27T00:17:41;99540.34;;;13.50;62.34
17764;BME280;22245;52.832;13.816;2022-09-27T00:21:06;99523.66;;;13.48;62.31
17764;BME280;22245;52.832;13.816;2022-09-27T00:24:28;99526.50;;;13.46;62.20
17764;BME280;22245;52.832;13.816;2022-09-27T00:27:50;99511.44;;;13.45;62.82
17764;BME280;22245;52.832;13.816;2022-09-27T00:31:17;99516.16;;;13.43;62.26
17764;BME280;22245;52.832;13.816;2022-09-27T00:34:41;99524.31;;;13.42;62.43
17764;BME280;22245;52.832;13.816;2022-09-27T00:38:05;99517.50;;;13.39;62.69
17764;BME280;22245;52.832;13.816;2022-09-27T00:41:29;99509.84;;;13.36;62.36
17764;BME280;22245;52.832;13.816;2022-09-27T00:45:04;99502.81;;;13.35;62.56
17764;BME280;22245;52.832;13.816;2022-09-27T00:48:28;99491.13;;;13.36;62.19
17764;BME280;22245;52.832;13.816;2022-09-27T00:51:58;99493.78;;;13.36;62.45
17764;BME280;22245;52.832;13.816;2022-09-27T00:55:27;99486.13;;;13.33;62.15
17764;BME280;22245;52.832;13.816;2022-09-27T00:58:55;99488.97;;;13.31;62.62
17764;BME280;22245;52.832;13.816;2022-09-27T01:02:18;99487.50;;;13.29;62.46
17764;BME280;22245;52.832;13.816;2022-09-27T01:05:40;99480.50;;;13.28;62.59
17764;BME280;22245;52.832;13.816;2022-09-27T01:09:03;99480.66;;;13.26;62.77
17764;BME280;22245;52.832;13.816;2022-09-27T01:12:33;99472.66;;;13.26;62.90
17764;BME280;22245;52.832;13.816;2022-09-27T01:16:03;99476.16;;;13.27;62.92
17764;BME280;22245;52.832;13.816;2022-09-27T01:19:56;99467.47;;;13.25;63.26
17764;BME280;22245;52.832;13.816;2022-09-27T01:23:46;99459.63;;;13.23;62.83
17764;BME280;22245;52.832;13.816;2022-09-27T01:31:18;99453.81;;;13.20;63.04
17764;BME280;22245;52.832;13.816;2022-09-27T01:34:46;99453.81;;;13.20;62.95
17764;BME280;22245;52.832;13.816;2022-09-27T01:38:14;99441.28;;;13.20;63.21
17764;BME280;22245;52.832;13.816;2022-09-27T01:41:43;99437.75;;;13.20;63.00
17764;BME280;22245;52.832;13.816;2022-09-27T01:45:30;99445.78;;;13.20;62.82
17764;BME280;22245;52.832;13.816;2022-09-27T01:49:09;99435.94;;;13.20;62.97
17764;BME280;22245;52.832;13.816;2022-09-27T01:52:36;99434.94;;;13.21;62.95
17764;BME280;22245;52.832;13.816;2022-09-27T01:56:02;99425.91;;;13.22;62.96
17764;BME280;22245;52.832;13.816;2022-09-27T01:59:50;99426.53;;;13.24;62.98
17764;BME280;22245;52.832;13.816;2022-09-27T02:03:35;99421.38;;;13.23;62.83
17764;BME280;22245;52.832;13.816;2022-09-27T02:07:30;99416.88;;;13.23;62.55
17764;BME280;22245;52.832;13.816;2022-09-27T02:10:55;99406.16;;;13.23;62.42
17764;BME280;22245;52.832;13.816;2022-09-27T02:14:24;99412.16;;;13.25;62.68
17764;BME280;22245;52.832;13.816;2022-09-27T02:17:56;99403.28;;;13.25;62.56
17764;BME280;22245;52.832;13.816;2022-09-27T02:21:24;99397.94;;;13.25;62.41
17764;BME280;22245;52.832;13.816;2022-09-27T02:24:57;99389.28;;;13.23;62.71
17764;BME280;22245;52.832;13.816;2022-09-27T02:28:25;99391.13;;;13.22;62.81
17764;BME280;22245;52.832;13.816;2022-09-27T02:31:49;99388.63;;;13.21;63.01
17764;BME280;22245;52.832;13.816;2022-09-27T02:35:14;99385.31;;;13.18;63.11
17764;BME280;22245;52.832;13.816;2022-09-27T02:38:38;99379.97;;;13.18;62.60
17764;BME280;22245;52.832;13.816;2022-09-27T02:42:02;99372.78;;;13.19;63.02
17764;BME280;22245;52.832;13.816;2022-09-27T02:45:30;99367.25;;;13.21;62.77
17764;BME280;22245;52.832;13.816;2022-09-27T02:49:03;99366.22;;;13.22;62.95
17764;BME280;22245;52.832;13.816;2022-09-27T02:52:38;99362.75;;;13.21;63.15
17764;BME280;22245;52.832;13.816;2022-09-27T02:56:09;99363.38;;;13.23;62.93
17764;BME280;22245;52.832;13.816;2022-09-27T03:00:04;99358.84;;;13.24;62.93
17764;BME280;22245;52.832;13.816;2022-09-27T03:03:58;99353.34;;;13.25;62.75
17764;BME280;22245;52.832;13.816;2022-09-27T03:07:23;99348.84;;;13.26;62.82
17764;BME280;22245;52.832;13.816;2022-09-27T03:10:45;99348.84;;;13.26;63.07
17764;BME280;22245;52.832;13.816;2022-09-27T03:14:08;99344.13;;;13.28;62.74
17764;BME280;22245;52.832;13.816;2022-09-27T03:17:39;99342.28;;;13.28;63.21
17764;BME280;22245;52.832;13.816;2022-09-27T03:21:27;99336.13;;;13.28;63.19
17764;BME280;22245;52.832;13.816;2022-09-27T03:24:49;99331.78;;;13.27;63.59
17764;BME280;22245;52.832;13.816;2022-09-27T03:28:11;99320.06;;;13.28;63.93
17764;BME280;22245;52.832;13.816;2022-09-27T03:31:34;99312.88;;;13.28;63.89
17764;BME280;22245;52.832;13.816;2022-09-27T03:35:32;99307.34;;;13.30;64.14
17764;BME280;22245;52.832;13.816;2022-09-27T03:38:54;99310.66;;;13.32;63.79
17764;BME280;22245;52.832;13.816;2022-09-27T03:42:16;99318.69;;;13.32;63.79
17764;BME280;22245;52.832;13.816;2022-09-27T03:45:42;99313.34;;;13.32;63.87
17764;BME280;22245;52.832;13.816;2022-09-27T03:49:04;99306.97;;;13.33;63.78
17764;BME280;22245;52.832;13.816;2022-09-27T03:52:28;99306.13;;;13.32;63.71
17764;BME280;22245;52.832;13.816;2022-09-27T03:55:49;99305.13;;;13.34;63.37
17764;BME280;22245;52.832;13.816;2022-09-27T03:59:11;99303.28;;;13.34;63.52
17764;BME280;22245;52.832;13.816;2022-09-27T04:03:00;99300.41;;;13.36;63.70
17764;BME280;22245;52.832;13.816;2022-09-27T04:06:44;99295.91;;;13.36;63.29
17764;BME280;22245;52.832;13.816;2022-09-27T04:10:08;99292.59;;;13.34;63.70
17764;BME280;22245;52.832;13.816;2022-09-27T04:13:29;99290.94;;;13.33;63.87
17764;BME280;22245;52.832;13.816;2022-09-27T04:16:51;99283.94;;;13.32;63.98
17764;BME280;22245;52.832;13.816;2022-09-27T04:20:23;99288.44;;;13.31;63.89
17764;BME280;22245;52.832;13.816;2022-09-27T04:23:44;99285.97;;;13.30;63.80
17764;BME280;22245;52.832;13.816;2022-09-27T04:27:11;99277.31;;;13.28;64.08
17764;BME280;22245;52.832;13.816;2022-09-27T04:30:34;99290.84;;;13.26;64.45
17764;BME280;22245;52.832;13.816;2022-09-27T04:34:04;99281.81;;;13.27;64.34
17764;BME280;22245;52.832;13.816;2022-09-27T04:37:28;99284.47;;;13.27;64.69
17764;BME280;22245;52.832;13.816;2022-09-27T04:40:54;99288.16;;;13.26;64.87
17764;BME280;22245;52.832;13.816;2022-09-27T04:44:18;99292.03;;;13.24;65.46
17764;BME280;22245;52.832;13.816;2022-09-27T04:47:43;99287.69;;;13.23;65.85
17764;BME280;22245;52.832;13.816;2022-09-27T04:51:05;99287.03;;;13.21;66.10
17764;BME280;22245;52.832;13.816;2022-09-27T04:54:27;99285.38;;;13.20;66.57
17764;BME280;22245;52.832;13.816;2022-09-27T04:58:00;99279.22;;;13.19;67.13
17764;BME280;22245;52.832;13.816;2022-09-27T05:01:24;99280.41;;;13.16;67.30
17764;BME280;22245;52.832;13.816;2022-09-27T05:05:09;99278.75;;;13.15;67.73
17764;BME280;22245;52.832;13.816;2022-09-27T05:08:33;99286.13;;;13.13;68.45
17764;BME280;22245;52.832;13.816;2022-09-27T05:12:16;99275.16;;;13.08;68.56
17764;BME280;22245;52.832;13.816;2022-09-27T05:15:47;99276.19;;;13.07;68.32
17764;BME280;22245;52.832;13.816;2022-09-27T05:19:30;99276.53;;;13.04;68.40
17764;BME280;22245;52.832;13.816;2022-09-27T05:23:15;99277.56;;;13.03;68.65
17764;BME280;22245;52.832;13.816;2022-09-27T05:26:37;99277.38;;;13.05;68.57
17764;BME280;22245;52.832;13.816;2022-09-27T05:29:59;99280.03;;;13.05;68.57
17764;BME280;22245;52.832;13.816;2022-09-27T05:33:30;99277.38;;;13.05;68.76
17764;BME280;22245;52.832;13.816;2022-09-27T05:37:14;99281.25;;;13.02;68.82
17764;BME280;22245;52.832;13.816;2022-09-27T05:40:36;99280.22;;;13.03;68.54
17764;BME280;22245;52.832;13.816;2022-09-27T05:44:03;99279.22;;;13.04;69.04
17764;BME280;22245;52.832;13.816;2022-09-27T05:47:26;99280.88;;;13.05;68.90
17764;BME280;22245;52.832;13.816;2022-09-27T05:50:48;99280.69;;;13.07;68.93
17764;BME280;22245;52.832;13.816;2022-09-27T05:54:12;99281.53;;;13.07;69.64
17764;BME280;22245;52.832;13.816;2022-09-27T05:57:34;99283.19;;;13.08;69.44
17764;BME280;22245;52.832;13.816;2022-09-27T06:00:59;99280.13;;;13.11;69.80
17764;BME280;22245;52.832;13.816;2022-09-27T06:04:39;99282.66;;;13.13;70.82
17764;BME280;22245;52.832;13.816;2022-09-27T06:08:32;99275.44;;;13.13;70.72
17764;BME280;22245;52.832;13.816;2022-09-27T06:11:56;99281.44;;;13.15;70.45
17764;BME280;22245;52.832;13.816;2022-09-27T06:15:18;99283.09;;;13.16;70.50
17764;BME280;22245;52.832;13.816;2022-09-27T06:18:41;99284.56;;;13.19;70.66
17764;BME280;22245;52.832;13.816;2022-09-27T06:22:03;99276.34;;;13.21;70.29
17764;BME280;22245;52.832;13.816;2022-09-27T06:25:49;99286.03;;;13.22;71.14
17764;BME280;22245;52.832;13.816;2022-09-27T06:29:19;99284.19;;;13.22;70.90
17764;BME280;22245;52.832;13.816;2022-09-27T06:32:54;99288.72;;;13.22;71.38
17764;BME280;22245;52.832;13.816;2022-09-27T06:36:39;99287.03;;;13.21;71.62
17764;BME280;22245;52.832;13.816;2022-09-27T06:40:01;99295.06;;;13.21;72.33
17764;BME280;22245;52.832;13.816;2022-09-27T06:43:49;99289.56;;;13.22;72.75
17764;BME280;22245;52.832;13.816;2022-09-27T06:47:35;99286.03;;;13.22;73.68
17764;BME280;22245;52.832;13.816;2022-09-27T06:51:17;99286.69;;;13.24;73.97
17764;BME280;22245;52.832;13.816;2022-09-27T06:54:41;99288.34;;;13.25;74.28
17764;BME280;22245;52.832;13.816;2022-09-27T06:58:03;99290.03;;;13.26;74.55
17764;BME280;22245;52.832;13.816;2022-09-27T07:02:06;99291.69;;;13.27;74.23
17764;BME280;22245;52.832;13.816;2022-09-27T07:06:06;99296.19;;;13.26;74.82
17764;BME280;22245;52.832;13.816;2022-09-27T07:09:37;99291.69;;;13.27;75.33
17764;BME280;22245;52.832;13.816;2022-09-27T07:13:02;99293.34;;;13.28;75.18
17764;BME280;22245;52.832;13.816;2022-09-27T07:16:25;99289.28;;;13.32;75.37
17764;BME280;22245;52.832;13.816;2022-09-27T07:19:47;99293.41;;;13.35;75.81
17764;BME280;22245;52.832;13.816;2022-09-27T07:23:13;99301.44;;;13.35;75.11
17764;BME280;22245;52.832;13.816;2022-09-27T07:26:37;99293.25;;;13.36;75.33
17764;BME280;22245;52.832;13.816;2022-09-27T07:30:01;99290.56;;;13.36;75.29
17764;BME280;22245;52.832;13.816;2022-09-27T07:33:23;99295.72;;;13.38;75.95
17764;BME280;22245;52.832;13.816;2022-09-27T07:36:48;99292.88;;;13.39;75.38
17764;BME280;22245;52.832;13.816;2022-09-27T07:40:12;99298.22;;;13.39;75.69
17764;BME280;22245;52.832;13.816;2022-09-27T07:43:34;99306.88;;;13.41;76.10
17764;BME280;22245;52.832;13.816;2022-09-27T07:46:57;99302.03;;;13.45;76.22
17764;BME280;22245;52.832;13.816;2022-09-27T07:50:38;99301.84;;;13.46;75.61
17764;BME280;22245;52.832;13.816;2022-09-27T07:54:19;99295.28;;;13.49;75.81
17764;BME280;22245;52.832;13.816;2022-09-27T07:58:04;99298.41;;;13.53;76.19
17764;BME280;22245;52.832;13.816;2022-09-27T08:01:26;99304.78;;;13.52;76.54
17764;BME280;22245;52.832;13.816;2022-09-27T08:04:49;99296.75;;;13.52;76.44
17764;BME280;22245;52.832;13.816;2022-09-27T08:08:12;99302.94;;;13.52;76.15
17764;BME280;22245;52.832;13.816;2022-09-27T08:11:35;99302.75;;;13.54;76.85
17764;BME280;22245;52.832;13.816;2022-09-27T08:14:58;99294.72;;;13.54;77.17
17764;BME280;22245;52.832;13.816;2022-09-27T08:18:21;99299.91;;;13.55;77.18
17764;BME280;22245;52.832;13.816;2022-09-27T08:22:04;99298.88;;;13.56;77.27
17764;BME280;22245;52.832;13.816;2022-09-27T08:25:37;99296.66;;;13.60;77.53
17764;BME280;22245;52.832;13.816;2022-09-27T08:29:18;99296.28;;;13.63;78.02
17764;BME280;22245;52.832;13.816;2022-09-27T08:32:46;99297.59;;;13.67;77.29
17764;BME280;22245;52.832;13.816;2022-09-27T08:36:10;99295.34;;;13.71;78.02
17764;BME280;22245;52.832;13.816;2022-09-27T08:39:33;99296.81;;;13.73;76.93
17764;BME280;22245;52.832;13.816;2022-09-27T08:43:01;99296.63;;;13.75;77.39
17764;BME280;22245;52.832;13.816;2022-09-27T08:46:31;99300.16;;;13.75;77.16
17764;BME280;22245;52.832;13.816;2022-09-27T08:50:01;99308.16;;;13.75;77.76
17764;BME280;22245;52.832;13.816;2022-09-27T08:53:29;99299.31;;;13.75;77.57
17764;BME280;22245;52.832;13.816;2022-09-27T08:56:54;99297.47;;;13.75;77.74
17764;BME280;22245;52.832;13.816;2022-09-27T09:00:20;99303.47;;;13.78;77.29
17764;BME280;22245;52.832;13.816;2022-09-27T09:03:45;99298.28;;;13.76;77.34
17764;BME280;22245;52.832;13.816;2022-09-27T09:07:20;99296.44;;;13.77;77.66
17764;BME280;22245;52.832;13.816;2022-09-27T09:10:50;99303.47;;;13.78;78.17
17764;BME280;22245;52.832;13.816;2022-09-27T09:18:32;99295.44;;;13.78;78.55
17764;BME280;22245;52.832;13.816;2022-09-27T09:22:09;99299.56;;;13.80;77.66
17764;BME280;22245;52.832;13.816;2022-09-27T09:25:41;99298.38;;;13.83;78.73
17764;BME280;22245;52.832;13.816;2022-09-27T09:29:20;99294.28;;;13.87;78.65
17764;BME280;22245;52.832;13.816;2022-09-27T09:32:57;99290.06;;;13.93;79.42
17764;BME280;22245;52.832;13.816;2022-09-27T09:36:29;99300.38;;;13.96;79.16
17764;BME280;22245;52.832;13.816;2022-09-27T09:39:58;99295.47;;;13.99;78.12
17764;BME280;22245;52.832;13.816;2022-09-27T09:43:33;99291.59;;;14.02;79.00
17764;BME280;22245;52.832;13.816;2022-09-27T09:47:01;99287.72;;;14.04;78.49
17764;BME280;22245;52.832;13.816;2022-09-27T09:50:26;99286.69;;;14.06;78.49
17764;BME280;22245;52.832;13.816;2022-09-27T09:53:53;99290.19;;;14.06;78.22
17764;BME280;22245;52.832;13.816;2022-09-27T09:57:24;99296.38;;;14.07;78.38
17764;BME280;22245;52.832;13.816;2022-09-27T10:00:53;99297.56;;;14.04;77.80
17764;BME280;22245;52.832;13.816;2022-09-27T10:04:19;99280.03;;;14.01;78.05
17764;BME280;22245;52.832;13.816;2022-09-27T10:07:46;99278.19;;;14.02;78.06
17764;BME280;22245;52.832;13.816;2022-09-27T10:11:17;99284.56;;;14.01;78.22
17764;BME280;22245;52.832;13.816;2022-09-27T10:14:49;99282.72;;;14.01;78.96
17764;BME280;22245;52.832;13.816;2022-09-27T10:18:16;99281.91;;;14.01;78.46
17764;BME280;22245;52.832;13.816;2022-09-27T10:21:41;99290.09;;;13.99;78.52
17764;BME280;22245;52.832;13.816;2022-09-27T10:25:07;99281.72;;;14.02;78.65
17764;BME280;22245;52.832;13.816;2022-09-27T10:28:41;99275.34;;;14.03;78.97
17764;BME280;22245;52.832;13.816;2022-09-27T10:32:20;99263.41;;;14.06;79.25
17764;BME280;22245;52.832;13.816;2022-09-27T10:35:47;99261.75;;;14.05;78.22
17764;BME280;22245;52.832;13.816;2022-09-27T10:39:22;99264.06;;;14.08;78.93
17764;BME280;22245;52.832;13.816;2022-09-27T10:42:44;99266.09;;;14.06;78.83
17764;BME280;22245;52.832;13.816;2022-09-27T10:46:20;99263.88;;;14.10;78.45
17764;BME280;22245;52.832;13.816;2022-09-27T10:49:47;99270.69;;;14.12;79.11
17764;BME280;22245;52.832;13.816;2022-09-27T10:53:30;99268.72;;;14.21;79.45
17764;BME280;22245;52.832;13.816;2022-09-27T10:57:00;99263.59;;;14.26;78.76
17764;BME280;22245;52.832;13.816;2022-09-27T11:00:25;99264.06;;;14.30;78.51
17764;BME280;22245;52.832;13.816;2022-09-27T11:03:53;99262.84;;;14.32;78.56
17764;BME280;22245;52.832;13.816;2022-09-27T11:07:18;99268.66;;;14.36;78.57
17764;BME280;22245;52.832;13.816;2022-09-27T11:11:15;99259.59;;;14.37;76.91
17764;BME280;22245;52.832;13.816;2022-09-27T11:14:40;99261.69;;;14.42;77.89
17764;BME280;22245;52.832;13.816;2022-09-27T11:18:07;99260.47;;;14.44;78.08
17764;BME280;22245;52.832;13.816;2022-09-27T11:21:39;99261.94;;;14.47;77.84
17764;BME280;22245;52.832;13.816;2022-09-27T11:25:17;99260.94;;;14.48;77.37
17764;BME280;22245;52.832;13.816;2022-09-27T11:28:50;99256.84;;;14.52;77.53
17764;BME280;22245;52.832;13.816;2022-09-27T11:32:40;99252.75;;;14.56;77.35
17764;BME280;22245;52.832;13.816;2022-09-27T11:36:12;99253.81;;;14.62;76.53
17764;BME280;22245;52.832;13.816;2022-09-27T11:39:43;99258.59;;;14.67;76.44
17764;BME280;22245;52.832;13.816;2022-09-27T11:43:24;99246.31;;;14.72;77.58
17764;BME280;22245;52.832;13.816;2022-09-27T11:46:57;99238.94;;;14.81;76.08
17764;BME280;22245;52.832;13.816;2022-09-27T11:51:01;99231.56;;;14.90;75.77
17764;BME280;22245;52.832;13.816;2022-09-27T11:54:50;99232.06;;;15.00;75.02
17764;BME280;22245;52.832;13.816;2022-09-27T11:58:20;99225.91;;;15.07;73.46
17764;BME280;22245;52.832;13.816;2022-09-27T12:01:57;99230.06;;;15.16;72.63
17764;BME280;22245;52.832;13.816;2022-09-27T12:05:36;99221.84;;;15.17;72.16
17764;BME280;22245;52.832;13.816;2022-09-27T12:09:05;99224.75;;;15.23;72.32
17764;BME280;22245;52.832;13.816;2022-09-27T12:12:31;99228.25;;;15.23;71.42
17764;BME280;22245;52.832;13.816;2022-09-27T12:15:55;99228.69;;;15.27;71.32
17764;BME280;22245;52.832;13.816;2022-09-27T12:19:25;99226.00;;;15.27;70.87
17764;BME280;22245;52.832;13.816;2022-09-27T12:23:01;99233.19;;;15.26;71.28
17764;BME280;22245;52.832;13.816;2022-09-27T12:26:42;99221.84;;;15.24;70.26
17764;BME280;22245;52.832;13.816;2022-09-27T12:30:11;99225.56;;;15.23;70.65
17764;BME280;22245;52.832;13.816;2022-09-27T12:33:42;99228.25;;;15.23;70.49
17764;BME280;22245;52.832;13.816;2022-09-27T12:37:11;99237.31;;;15.22;71.45
17764;BME280;22245;52.832;13.816;2022-09-27T12:40:39;99248.44;;;15.19;72.06
17764;BME280;22245;52.832;13.816;2022-09-27T12:44:07;99252.72;;;15.13;72.39
17764;BME280;22245;52.832;13.816;2022-09-27T12:47:54;99264.66;;;15.04;73.37
17764;BME280;22245;52.832;13.816;2022-09-27T12:51:20;99271.81;;;14.97;73.58
17764;BME280;22245;52.832;13.816;2022-09-27T12:55:02;99270.09;;;14.82;72.78
17764;BME280;22245;52.832;13.816;2022-09-27T12:58:44;99288.69;;;14.69;72.30
17764;BME280;22245;52.832;13.816;2022-09-27T13:02:30;99286.69;;;14.49;72.92
17764;BME280;22245;52.832;13.816;2022-09-27T13:06:38;99287.75;;;14.11;71.57
17764;BME280;22245;52.832;13.816;2022-09-27T13:14:16;99302.75;;;13.54;74.04
17764;BME280;22245;52.832;13.816;2022-09-27T13:17:50;99310.66;;;13.32;75.64
17764;BME280;22245;52.832;13.816;2022-09-27T13:21:53;99309.81;;;13.16;75.55
17764;BME280;22245;52.832;13.816;2022-09-27T13:25:50;99311.66;;;13.01;76.23
17764;BME280;22245;52.832;13.816;2022-09-27T13:29:35;99306.03;;;12.96;77.63
17764;BME280;22245;52.832;13.816;2022-09-27T13:33:20;99305.56;;;12.92;77.66
17764;BME280;22245;52.832;13.816;2022-09-27T13:36:50;99303.41;;;12.87;77.27
17764;BME280;22245;52.832;13.816;2022-09-27T13:40:28;99307.66;;;12.82;77.91
17764;BME280;22245;52.832;13.816;2022-09-27T13:44:34;99300.81;;;12.79;79.33
17764;BME280;22245;52.832;13.816;2022-09-27T13:48:00;99298.72;;;12.74;78.75
17764;BME280;22245;52.832;13.816;2022-09-27T13:51:35;99296.22;;;12.73;79.45
17764;BME280;22245;52.832;13.816;2022-09-27T13:55:02;99300.91;;;12.71;79.04
17764;BME280;22245;52.832;13.816;2022-09-27T13:58:43;99303.94;;;12.68;80.50
17764;BME280;22245;52.832;13.816;2022-09-27T14:02:41;99302.94;;;12.69;80.64
17764;BME280;22245;52.832;13.816;2022-09-27T14:06:07;99316.28;;;12.69;81.24
17764;BME280;22245;52.832;13.816;2022-09-27T14:09:37;99322.47;;;12.69;81.84
17764;BME280;22245;52.832;13.816;2022-09-27T14:13:17;99320.44;;;12.71;81.96
17764;BME280;22245;52.832;13.816;2022-09-27T14:16:49;99320.53;;;12.78;82.68
17764;BME280;22245;52.832;13.816;2022-09-27T14:24:28;99325.09;;;12.93;82.67
17764;BME280;22245;52.832;13.816;2022-09-27T14:27:56;99324.66;;;13.04;82.08
17764;BME280;22245;52.832;13.816;2022-09-27T14:31:24;99338.41;;;13.16;82.38
17764;BME280;22245;52.832;13.816;2022-09-27T14:35:05;99335.28;;;13.27;82.81
17764;BME280;22245;52.832;13.816;2022-09-27T14:38:47;99340.34;;;13.37;83.59
17764;BME280;22245;52.832;13.816;2022-09-27T14:42:21;99339.66;;;13.43;82.08
17764;BME280;22245;52.832;13.816;2022-09-27T14:45:45;99342.41;;;13.50;83.06
17764;BME280;22245;52.832;13.816;2022-09-27T14:49:18;99339.19;;;13.55;82.10
17764;BME280;22245;52.832;13.816;2022-09-27T14:52:39;99339.44;;;13.60;82.30
17764;BME280;22245;52.832;13.816;2022-09-27T14:56:02;99342.75;;;13.62;81.87
17764;BME280;22245;52.832;13.816;2022-09-27T14:59:28;99344.06;;;13.66;82.78
17764;BME280;22245;52.832;13.816;2022-09-27T15:02:53;99351.72;;;13.69;82.44
17764;BME280;22245;52.832;13.816;2022-09-27T15:06:16;99355.84;;;13.72;81.26
17764;BME280;22245;52.832;13.816;2022-09-27T15:09:38;99348.31;;;13.75;80.54
17764;BME280;22245;52.832;13.816;2022-09-27T15:13:02;99360.03;;;13.74;79.79
17764;BME280;22245;52.832;13.816;2022-09-27T15:16:26;99358.91;;;13.69;79.72
17764;BME280;22245;52.832;13.816;2022-09-27T15:19:56;99359.66;;;13.63;79.13
17764;BME280;22245;52.832;13.816;2022-09-27T15:23:25;99369.72;;;13.60;78.88
17764;BME280;22245;52.832;13.816;2022-09-27T15:26:49;99370.09;;;13.57;80.18
17764;BME280;22245;52.832;13.816;2022-09-27T15:30:16;99372.94;;;13.56;81.38
17764;BME280;22245;52.832;13.816;2022-09-27T15:33:40;99361.59;;;13.54;82.00
17764;BME280;22245;52.832;13.816;2022-09-27T15:37:03;99376.81;;;13.53;82.68
17764;BME280;22245;52.832;13.816;2022-09-27T15:44:36;99378.00;;;13.51;81.19
17764;BME280;22245;52.832;13.816;2022-09-27T15:48:05;99390.38;;;13.52;81.52
17764;BME280;22245;52.832;13.816;2022-09-27T15:51:40;99386.69;;;13.53;81.85
17764;BME280;22245;52.832;13.816;2022-09-27T15:55:02;99384.84;;;13.53;81.41
17764;BME280;22245;52.832;13.816;2022-09-27T15:58:24;99385.00;;;13.52;80.98
17764;BME280;22245;52.832;13.816;2022-09-27T16:01:46;99387.69;;;13.52;81.05
17764;BME280;22245;52.832;13.816;2022-09-27T16:05:08;99386.22;;;13.49;80.63
17764;BME280;22245;52.832;13.816;2022-09-27T16:08:31;99393.41;;;13.49;80.37
17764;BME280;22245;52.832;13.816;2022-09-27T16:11:52;99394.44;;;13.48;80.62
17764;BME280;22245;52.832;13.816;2022-09-27T16:15:14;99391.09;;;13.45;80.05
17764;BME280;22245;52.832;13.816;2022-09-27T16:18:35;99390.28;;;13.45;79.73
17764;BME280;22245;52.832;13.816;2022-09-27T16:21:57;99399.50;;;13.42;80.17
17764;BME280;22245;52.832;13.816;2022-09-27T16:25:24;99398.16;;;13.38;80.08
17764;BME280;22245;52.832;13.816;2022-09-27T16:28:47;99404.69;;;13.36;79.65
17764;BME280;22245;52.832;13.816;2022-09-27T16:32:09;99404.41;;;13.30;80.18
17764;BME280;22245;52.832;13.816;2022-09-27T16:35:31;99407.66;;;13.26;80.77
17764;BME280;22245;52.832;13.816;2022-09-27T16:38:52;99412.53;;;13.22;80.20
17764;BME280;22245;52.832;13.816;2022-09-27T16:42:15;99410.38;;;13.17;80.41
17764;BME280;22245;52.832;13.816;2022-09-27T16:45:37;99420.63;;;13.14;80.54
17764;BME280;22245;52.832;13.816;2022-09-27T16:48:58;99422.16;;;13.08;80.49
17764;BME280;22245;52.832;13.816;2022-09-27T16:52:19;99427.88;;;13.05;80.65
17764;BME280;22245;52.832;13.816;2022-09-27T16:55:40;99429.25;;;13.01;80.79
17764;BME280;22245;52.832;13.816;2022-09-27T16:59:04;99435.78;;;12.98;81.16
17764;BME280;22245;52.832;13.816;2022-09-27T17:02:26;99435.13;;;12.96;80.87
17764;BME280;22245;52.832;13.816;2022-09-27T17:05:48;99444.50;;;12.92;81.18
17764;BME280;22245;52.832;13.816;2022-09-27T17:09:09;99426.00;;;12.91;80.49
17764;BME280;22245;52.832;13.816;2022-09-27T17:12:31;99424.50;;;12.88;81.38
17764;BME280;22245;52.832;13.816;2022-09-27T17:15:54;99422.53;;;12.82;80.70
17764;BME280;22245;52.832;13.816;2022-09-27T17:19:16;99428.91;;;12.81;81.20
17764;BME280;22245;52.832;13.816;2022-09-27T17:22:38;99439.94;;;12.78;80.99
17764;BME280;22245;52.832;13.816;2022-09-27T17:26:05;99445.00;;;12.72;80.30
17764;BME280;22245;52.832;13.816;2022-09-27T17:29:27;99442.19;;;12.66;80.42
17764;BME280;22245;52.832;13.816;2022-09-27T17:33:00;99452.22;;;12.64;80.62
17764;BME280;22245;52.832;13.816;2022-09-27T17:36:26;99450.91;;;12.59;81.11
17764;BME280;22245;52.832;13.816;2022-09-27T17:39:49;99446.75;;;12.57;80.73
17764;BME280;22245;52.832;13.816;2022-09-27T17:43:10;99453.28;;;12.54;80.65
17764;BME280;22245;52.832;13.816;2022-09-27T17:46:34;99455.31;;;12.52;80.68
17764;BME280;22245;52.832;13.816;2022-09-27T17:49:58;99446.31;;;12.45;81.19
17764;BME280;22245;52.832;13.816;2022-09-27T17:53:37;99450.16;;;12.42;80.70
17764;BME280;22245;52.832;13.816;2022-09-27T17:56:59;99457.69;;;12.39;81.19
17764;BME280;22245;52.832;13.816;2022-09-27T18:00:21;99455.56;;;12.34;81.55
17764;BME280;22245;52.832;13.816;2022-09-27T18:03:43;99464.72;;;12.32;81.91
17764;BME280;22245;52.832;13.816;2022-09-27T18:07:06;99459.56;;;12.30;81.98
17764;BME280;22245;52.832;13.816;2022-09-27T18:10:27;99466.09;;;12.27;82.08
17764;BME280;22245;52.832;13.816;2022-09-27T18:13:49;99463.78;;;12.24;81.50
17764;BME280;22245;52.832;13.816;2022-09-27T18:17:10;99475.63;;;12.22;80.97
17764;BME280;22245;52.832;13.816;2022-09-27T18:20:33;99476.81;;;12.19;80.57
17764;BME280;22245;52.832;13.816;2022-09-27T18:23:57;99478.81;;;12.17;80.96
17764;BME280;22245;52.832;13.816;2022-09-27T18:27:19;99481.00;;;12.13;81.12
17764;BME280;22245;52.832;13.816;2022-09-27T18:30:41;99478.66;;;12.10;80.36
17764;BME280;22245;52.832;13.816;2022-09-27T18:34:03;99484.69;;;12.04;80.62
17764;BME280;22245;52.832;13.816;2022-09-27T18:37:24;99490.50;;;11.99;79.72